sensor_id;sensor_type;location;lat;lon;timestamp;temperature;humidity
20070;DHT22;10195;50.868;4.382;2023-04-08T00:01:17;9.90;99.90
20070;DHT22;10195;50.868;4.382;2023-04-08T00:03:43;10.00;99.90
20070;DHT22;10195;50.868;4.382;2023-04-08T00:06:09;10.10;99.90
20070;DHT22;10195;50.868;4.382;2023-04-08T00:08:35;10.00;99.90
20070;DHT22;10195;50.868;4.382;2023-04-08T00:11:04;10.10;99.90
20070;DHT22;10195;50.868;4.382;2023-04-08T00:13:30;9.90;99.90
20070;DHT22;10195;50.868;4.382;2023-04-08T00:15:56;9.90;99.90
20070;DHT22;10195;50.868;4.382;2023-04-08T00:18:23;9.90;99.90
20070;DHT22;10195;50.868;4.382;2023-04-08T00:20:52;9.90;99.90
20070;DHT22;10195;50.868;4.382;2023-04-08T00:23:20;9.90;99.90
20070;DHT22;10195;50.868;4.382;2023-04-08T00:25:46;9.90;99.90
20070;DHT22;10195;50.868;4.382;2023-04-08T00:28:12;9.80;99.90
20070;DHT22;10195;50.868;4.382;2023-04-08T00:30:38;9.80;99.90
20070;DHT22;10195;50.868;4.382;2023-04-08T00:33:04;9.70;99.90
20070;DHT22;10195;50.868;4.382;2023-04-08T00:35:33;9.60;99.90
20070;DHT22;10195;50.868;4.382;2023-04-08T00:37:59;9.60;99.90
20070;DHT22;10195;50.868;4.382;2023-04-08T00:40:26;9.50;99.90
20070;DHT22;10195;50.868;4.382;2023-04-08T00:42:51;9.50;99.90
20070;DHT22;10195;50.868;4.382;2023-04-08T00:45:20;9.40;99.90
20070;DHT22;10195;50.868;4.382;2023-04-08T00:47:46;9.40;99.90
20070;DHT22;10195;50.868;4.382;2023-04-08T00:50:17;9.40;99.90
20070;DHT22;10195;50.868;4.382;2023-04-08T00:52:43;9.40;99.90
20070;DHT22;10195;50.868;4.382;2023-04-08T00:55:08;9.50;99.90
20070;DHT22;10195;50.868;4.382;2023-04-08T00:57:34;9.60;99.90
20070;DHT22;10195;50.868;4.382;2023-04-08T01:00:01;9.60;99.90
20070;DHT22;10195;50.868;4.382;2023-04-08T01:02:49;9.70;99.90
20070;DHT22;10195;50.868;4.382;2023-04-08T01:05:38;9.80;99.90
20070;DHT22;10195;50.868;4.382;2023-04-08T01:08:06;9.90;99.90
20070;DHT22;10195;50.868;4.382;2023-04-08T01:10:34;10.00;99.90
20070;DHT22;10195;50.868;4.382;2023-04-08T01:13:08;9.90;99.90
20070;DHT22;10195;50.868;4.382;2023-04-08T01:15:36;9.90;99.90
20070;DHT22;10195;50.868;4.382;2023-04-08T01:18:06;9.80;99.90
20070;DHT22;10195;50.868;4.382;2023-04-08T01:20:33;9.80;99.90
20070;DHT22;10195;50.868;4.382;2023-04-08T01:23:35;9.90;99.90
20070;DHT22;10195;50.868;4.382;2023-04-08T01:25:57;10.00;99.90
20070;DHT22;10195;50.868;4.382;2023-04-08T01:28:27;10.10;99.90
20070;DHT22;10195;50.868;4.382;2023-04-08T01:30:56;10.00;99.90
20070;DHT22;10195;50.868;4.382;2023-04-08T01:33:24;9.80;99.90
20070;DHT22;10195;50.868;4.382;2023-04-08T01:35:51;9.80;99.90
20070;DHT22;10195;50.868;4.382;2023-04-08T01:38:19;9.80;99.90
20070;DHT22;10195;50.868;4.382;2023-04-08T01:40:46;9.90;99.90
20070;DHT22;10195;50.868;4.382;2023-04-08T01:43:16;9.90;99.90
20070;DHT22;10195;50.868;4.382;2023-04-08T01:45:44;10.00;99.90
20070;DHT22;10195;50.868;4.382;2023-04-08T01:48:12;10.10;99.90
20070;DHT22;10195;50.868;4.382;2023-04-08T01:50:41;10.10;99.90
20070;DHT22;10195;50.868;4.382;2023-04-08T01:53:11;10.10;99.90
20070;DHT22;10195;50.868;4.382;2023-04-08T01:55:39;10.10;99.90
20070;DHT22;10195;50.868;4.382;2023-04-08T01:58:06;10.10;99.90
20070;DHT22;10195;50.868;4.382;2023-04-08T02:00:34;10.00;99.90
20070;DHT22;10195;50.868;4.382;2023-04-08T02:03:01;10.10;99.90
20070;DHT22;10195;50.868;4.382;2023-04-08T02:05:29;10.10;99.90
20070;DHT22;10195;50.868;4.382;2023-04-08T02:07:55;10.10;99.90
20070;DHT22;10195;50.868;4.382;2023-04-08T02:10:21;10.10;99.90
20070;DHT22;10195;50.868;4.382;2023-04-08T02:12:47;9.90;99.90
20070;DHT22;10195;50.868;4.382;2023-04-08T02:15:13;9.80;99.90
20070;DHT22;10195;50.868;4.382;2023-04-08T02:17:52;9.90;99.90
20070;DHT22;10195;50.868;4.382;2023-04-08T02:20:30;10.00;99.90
20070;DHT22;10195;50.868;4.382;2023-04-08T02:23:08;10.10;99.90
20070;DHT22;10195;50.868;4.382;2023-04-08T02:25:37;10.00;99.90
20070;DHT22;10195;50.868;4.382;2023-04-08T02:28:09;9.70;99.90
20070;DHT22;10195;50.868;4.382;2023-04-08T02:30:41;9.70;99.90
20070;DHT22;10195;50.868;4.382;2023-04-08T02:33:08;9.80;99.90
20070;DHT22;10195;50.868;4.382;2023-04-08T02:35:35;9.80;99.90
20070;DHT22;10195;50.868;4.382;2023-04-08T02:38:01;9.40;99.90
20070;DHT22;10195;50.868;4.382;2023-04-08T02:40:29;9.50;99.90
20070;DHT22;10195;50.868;4.382;2023-04-08T02:42:56;9.60;99.90
20070;DHT22;10195;50.868;4.382;2023-04-08T02:45:30;9.70;99.90
20070;DHT22;10195;50.868;4.382;2023-04-08T02:47:57;9.80;99.90
20070;DHT22;10195;50.868;4.382;2023-04-08T02:50:23;9.90;99.90
20070;DHT22;10195;50.868;4.382;2023-04-08T02:52:49;9.70;99.90
20070;DHT22;10195;50.868;4.382;2023-04-08T02:55:15;9.70;99.90
20070;DHT22;10195;50.868;4.382;2023-04-08T02:57:41;9.70;99.90
20070;DHT22;10195;50.868;4.382;2023-04-08T03:00:10;9.70;99.90
20070;DHT22;10195;50.868;4.382;2023-04-08T03:02:36;9.60;99.90
20070;DHT22;10195;50.868;4.382;2023-04-08T03:05:01;9.60;99.90
20070;DHT22;10195;50.868;4.382;2023-04-08T03:07:28;9.60;99.90
20070;DHT22;10195;50.868;4.382;2023-04-08T03:09:54;9.50;99.90
20070;DHT22;10195;50.868;4.382;2023-04-08T03:12:21;9.70;99.90
20070;DHT22;10195;50.868;4.382;2023-04-08T03:14:47;9.70;99.90
20070;DHT22;10195;50.868;4.382;2023-04-08T03:17:13;9.80;99.90
20070;DHT22;10195;50.868;4.382;2023-04-08T03:19:39;9.80;99.90
20070;DHT22;10195;50.868;4.382;2023-04-08T03:22:05;9.70;99.90
20070;DHT22;10195;50.868;4.382;2023-04-08T03:24:31;9.70;99.90
20070;DHT22;10195;50.868;4.382;2023-04-08T03:26:57;9.80;99.90
20070;DHT22;10195;50.868;4.382;2023-04-08T03:29:22;9.70;99.90
20070;DHT22;10195;50.868;4.382;2023-04-08T03:31:48;9.60;99.90
20070;DHT22;10195;50.868;4.382;2023-04-08T03:34:14;9.60;99.90
20070;DHT22;10195;50.868;4.382;2023-04-08T03:36:45;9.50;99.90
20070;DHT22;10195;50.868;4.382;2023-04-08T03:39:11;9.50;99.90
20070;DHT22;10195;50.868;4.382;2023-04-08T03:41:37;9.50;99.90
20070;DHT22;10195;50.868;4.382;2023-04-08T03:44:02;9.50;99.90
20070;DHT22;10195;50.868;4.382;2023-04-08T03:46:28;9.60;99.90
20070;DHT22;10195;50.868;4.382;2023-04-08T03:48:54;9.60;99.90
20070;DHT22;10195;50.868;4.382;2023-04-08T03:51:20;9.50;99.90
20070;DHT22;10195;50.868;4.382;2023-04-08T03:53:48;9.50;99.90
20070;DHT22;10195;50.868;4.382;2023-04-08T03:56:14;9.50;99.90
20070;DHT22;10195;50.868;4.382;2023-04-08T03:58:40;9.50;99.90
20070;DHT22;10195;50.868;4.382;2023-04-08T04:01:06;9.40;99.90
20070;DHT22;10195;50.868;4.382;2023-04-08T04:03:32;9.40;99.90
20070;DHT22;10195;50.868;4.382;2023-04-08T04:05:58;9.40;99.90
20070;DHT22;10195;50.868;4.382;2023-04-08T04:08:23;9.30;99.90
20070;DHT22;10195;50.868;4.382;2023-04-08T04:10:49;9.30;99.90
20070;DHT22;10195;50.868;4.382;2023-04-08T04:13:16;9.20;99.90
20070;DHT22;10195;50.868;4.382;2023-04-08T04:15:41;9.20;99.90
20070;DHT22;10195;50.868;4.382;2023-04-08T04:18:07;9.20;99.90
20070;DHT22;10195;50.868;4.382;2023-04-08T04:20:33;9.30;99.90
20070;DHT22;10195;50.868;4.382;2023-04-08T04:22:59;9.20;99.90
20070;DHT22;10195;50.868;4.382;2023-04-08T04:25:25;9.10;99.90
20070;DHT22;10195;50.868;4.382;2023-04-08T04:27:51;9.20;99.90
20070;DHT22;10195;50.868;4.382;2023-04-08T04:30:16;9.40;99.90
20070;DHT22;10195;50.868;4.382;2023-04-08T04:32:44;9.40;99.90
20070;DHT22;10195;50.868;4.382;2023-04-08T04:35:10;9.30;99.90
20070;DHT22;10195;50.868;4.382;2023-04-08T04:37:36;9.10;99.90
20070;DHT22;10195;50.868;4.382;2023-04-08T04:40:03;9.00;99.90
20070;DHT22;10195;50.868;4.382;2023-04-08T04:42:29;8.90;99.90
20070;DHT22;10195;50.868;4.382;2023-04-08T04:44:55;8.80;99.90
20070;DHT22;10195;50.868;4.382;2023-04-08T04:47:21;8.70;99.90
20070;DHT22;10195;50.868;4.382;2023-04-08T04:49:46;8.80;99.90
20070;DHT22;10195;50.868;4.382;2023-04-08T04:52:12;8.90;99.90
20070;DHT22;10195;50.868;4.382;2023-04-08T04:54:38;9.00;99.90
20070;DHT22;10195;50.868;4.382;2023-04-08T04:57:04;9.10;99.90
20070;DHT22;10195;50.868;4.382;2023-04-08T04:59:30;9.10;99.90
20070;DHT22;10195;50.868;4.382;2023-04-08T05:01:55;9.20;99.90
20070;DHT22;10195;50.868;4.382;2023-04-08T05:04:23;9.10;99.90
20070;DHT22;10195;50.868;4.382;2023-04-08T05:06:48;9.10;99.90
20070;DHT22;10195;50.868;4.382;2023-04-08T05:09:14;9.00;99.90
20070;DHT22;10195;50.868;4.382;2023-04-08T05:11:46;9.00;99.90
20070;DHT22;10195;50.868;4.382;2023-04-08T05:14:12;9.20;99.90
20070;DHT22;10195;50.868;4.382;2023-04-08T05:16:40;9.20;99.90
20070;DHT22;10195;50.868;4.382;2023-04-08T05:19:06;9.10;99.90
20070;DHT22;10195;50.868;4.382;2023-04-08T05:21:32;9.20;99.90
20070;DHT22;10195;50.868;4.382;2023-04-08T05:23:57;9.00;99.90
20070;DHT22;10195;50.868;4.382;2023-04-08T05:26:23;9.10;99.90
20070;DHT22;10195;50.868;4.382;2023-04-08T05:28:49;9.10;99.90
20070;DHT22;10195;50.868;4.382;2023-04-08T05:31:17;9.30;99.90
20070;DHT22;10195;50.868;4.382;2023-04-08T05:33:43;9.20;99.90
20070;DHT22;10195;50.868;4.382;2023-04-08T05:36:15;9.20;99.90
20070;DHT22;10195;50.868;4.382;2023-04-08T05:38:40;9.20;99.90
20070;DHT22;10195;50.868;4.382;2023-04-08T05:41:11;9.10;99.90
20070;DHT22;10195;50.868;4.382;2023-04-08T05:43:37;9.10;99.90
20070;DHT22;10195;50.868;4.382;2023-04-08T05:46:07;9.10;99.90
20070;DHT22;10195;50.868;4.382;2023-04-08T05:48:33;9.00;99.90
20070;DHT22;10195;50.868;4.382;2023-04-08T05:50:59;9.10;99.90
20070;DHT22;10195;50.868;4.382;2023-04-08T05:53:25;9.10;99.90
20070;DHT22;10195;50.868;4.382;2023-04-08T05:55:51;9.10;99.90
20070;DHT22;10195;50.868;4.382;2023-04-08T05:58:16;9.30;99.90
20070;DHT22;10195;50.868;4.382;2023-04-08T06:00:42;9.00;99.90
20070;DHT22;10195;50.868;4.382;2023-04-08T06:03:08;9.00;99.90
20070;DHT22;10195;50.868;4.382;2023-04-08T06:05:33;9.10;99.90
20070;DHT22;10195;50.868;4.382;2023-04-08T06:07:59;9.20;99.90
20070;DHT22;10195;50.868;4.382;2023-04-08T06:10:26;9.20;99.90
20070;DHT22;10195;50.868;4.382;2023-04-08T06:12:51;9.40;99.90
20070;DHT22;10195;50.868;4.382;2023-04-08T06:15:17;9.60;99.90
20070;DHT22;10195;50.868;4.382;2023-04-08T06:17:43;9.60;99.90
20070;DHT22;10195;50.868;4.382;2023-04-08T06:20:09;9.70;99.90
20070;DHT22;10195;50.868;4.382;2023-04-08T06:22:35;9.80;99.90
20070;DHT22;10195;50.868;4.382;2023-04-08T06:25:01;10.00;99.90
20070;DHT22;10195;50.868;4.382;2023-04-08T06:27:27;10.10;99.90
20070;DHT22;10195;50.868;4.382;2023-04-08T06:29:53;10.20;99.90
20070;DHT22;10195;50.868;4.382;2023-04-08T06:32:20;10.30;99.90
20070;DHT22;10195;50.868;4.382;2023-04-08T06:34:46;10.20;99.90
20070;DHT22;10195;50.868;4.382;2023-04-08T06:37:12;10.40;99.90
20070;DHT22;10195;50.868;4.382;2023-04-08T06:39:38;10.50;99.90
20070;DHT22;10195;50.868;4.382;2023-04-08T06:42:04;10.30;99.90
20070;DHT22;10195;50.868;4.382;2023-04-08T06:44:31;10.40;99.90
20070;DHT22;10195;50.868;4.382;2023-04-08T06:46:57;10.40;99.90
20070;DHT22;10195;50.868;4.382;2023-04-08T06:49:23;10.60;99.90
20070;DHT22;10195;50.868;4.382;2023-04-08T06:51:48;10.30;99.90
20070;DHT22;10195;50.868;4.382;2023-04-08T06:54:14;10.00;99.90
20070;DHT22;10195;50.868;4.382;2023-04-08T06:56:40;10.00;99.90
20070;DHT22;10195;50.868;4.382;2023-04-08T06:59:07;10.20;99.90
20070;DHT22;10195;50.868;4.382;2023-04-08T07:01:32;10.10;99.90
20070;DHT22;10195;50.868;4.382;2023-04-08T07:03:58;10.20;99.90
20070;DHT22;10195;50.868;4.382;2023-04-08T07:06:26;10.30;99.90
20070;DHT22;10195;50.868;4.382;2023-04-08T07:08:52;10.50;99.90
20070;DHT22;10195;50.868;4.382;2023-04-08T07:11:17;10.70;99.90
20070;DHT22;10195;50.868;4.382;2023-04-08T07:13:43;10.90;99.90
20070;DHT22;10195;50.868;4.382;2023-04-08T07:16:09;10.80;99.90
20070;DHT22;10195;50.868;4.382;2023-04-08T07:18:34;10.70;99.90
20070;DHT22;10195;50.868;4.382;2023-04-08T07:21:01;11.10;99.90
20070;DHT22;10195;50.868;4.382;2023-04-08T07:23:26;11.50;99.90
20070;DHT22;10195;50.868;4.382;2023-04-08T07:25:52;11.70;99.90
20070;DHT22;10195;50.868;4.382;2023-04-08T07:28:21;11.80;99.90
20070;DHT22;10195;50.868;4.382;2023-04-08T07:30:46;11.90;99.90
20070;DHT22;10195;50.868;4.382;2023-04-08T07:33:12;11.50;99.90
20070;DHT22;10195;50.868;4.382;2023-04-08T07:35:39;11.60;99.90
20070;DHT22;10195;50.868;4.382;2023-04-08T07:38:06;11.50;99.90
20070;DHT22;10195;50.868;4.382;2023-04-08T07:40:35;11.50;99.90
20070;DHT22;10195;50.868;4.382;2023-04-08T07:43:01;11.50;99.90
20070;DHT22;10195;50.868;4.382;2023-04-08T07:45:27;11.60;99.90
20070;DHT22;10195;50.868;4.382;2023-04-08T07:47:53;11.80;99.90
20070;DHT22;10195;50.868;4.382;2023-04-08T07:50:18;11.80;99.90
20070;DHT22;10195;50.868;4.382;2023-04-08T07:52:44;11.60;99.90
20070;DHT22;10195;50.868;4.382;2023-04-08T07:55:11;11.90;99.90
20070;DHT22;10195;50.868;4.382;2023-04-08T07:57:37;12.10;99.90
20070;DHT22;10195;50.868;4.382;2023-04-08T08:00:03;12.20;99.90
20070;DHT22;10195;50.868;4.382;2023-04-08T08:02:29;11.80;99.90
20070;DHT22;10195;50.868;4.382;2023-04-08T08:04:55;11.30;99.90
20070;DHT22;10195;50.868;4.382;2023-04-08T08:07:21;11.00;99.90
20070;DHT22;10195;50.868;4.382;2023-04-08T08:09:46;10.90;99.90
20070;DHT22;10195;50.868;4.382;2023-04-08T08:12:12;10.80;99.90
20070;DHT22;10195;50.868;4.382;2023-04-08T08:14:38;10.90;99.90
20070;DHT22;10195;50.868;4.382;2023-04-08T08:17:06;10.90;99.90
20070;DHT22;10195;50.868;4.382;2023-04-08T08:19:32;11.00;99.90
20070;DHT22;10195;50.868;4.382;2023-04-08T08:21:57;11.00;99.90
20070;DHT22;10195;50.868;4.382;2023-04-08T08:24:23;10.80;99.90
20070;DHT22;10195;50.868;4.382;2023-04-08T08:26:50;10.90;99.90
20070;DHT22;10195;50.868;4.382;2023-04-08T08:29:16;11.00;99.90
20070;DHT22;10195;50.868;4.382;2023-04-08T08:31:41;10.90;99.90
20070;DHT22;10195;50.868;4.382;2023-04-08T08:34:07;11.00;99.90
20070;DHT22;10195;50.868;4.382;2023-04-08T08:36:33;11.00;99.90
20070;DHT22;10195;50.868;4.382;2023-04-08T08:38:58;11.00;99.90
20070;DHT22;10195;50.868;4.382;2023-04-08T08:41:24;11.20;99.90
20070;DHT22;10195;50.868;4.382;2023-04-08T08:43:50;11.30;99.90
20070;DHT22;10195;50.868;4.382;2023-04-08T08:46:17;11.20;99.90
20070;DHT22;10195;50.868;4.382;2023-04-08T08:48:46;11.30;99.90
20070;DHT22;10195;50.868;4.382;2023-04-08T08:51:12;11.10;99.90
20070;DHT22;10195;50.868;4.382;2023-04-08T08:53:38;11.10;99.90
20070;DHT22;10195;50.868;4.382;2023-04-08T08:56:04;11.30;99.90
20070;DHT22;10195;50.868;4.382;2023-04-08T08:58:33;11.40;99.90
20070;DHT22;10195;50.868;4.382;2023-04-08T09:00:59;11.60;99.90
20070;DHT22;10195;50.868;4.382;2023-04-08T09:03:26;11.60;99.90
20070;DHT22;10195;50.868;4.382;2023-04-08T09:05:58;11.60;99.90
20070;DHT22;10195;50.868;4.382;2023-04-08T09:10:53;11.20;99.90
20070;DHT22;10195;50.868;4.382;2023-04-08T09:13:21;11.10;99.90
20070;DHT22;10195;50.868;4.382;2023-04-08T09:16:05;11.00;99.90
20070;DHT22;10195;50.868;4.382;2023-04-08T09:18:32;11.10;99.90
20070;DHT22;10195;50.868;4.382;2023-04-08T09:21:02;11.20;99.90
20070;DHT22;10195;50.868;4.382;2023-04-08T09:23:49;11.50;99.90
20070;DHT22;10195;50.868;4.382;2023-04-08T09:26:21;11.40;99.90
20070;DHT22;10195;50.868;4.382;2023-04-08T09:29:16;11.10;99.90
20070;DHT22;10195;50.868;4.382;2023-04-08T09:31:42;11.40;99.90
20070;DHT22;10195;50.868;4.382;2023-04-08T09:34:13;11.30;99.90
20070;DHT22;10195;50.868;4.382;2023-04-08T09:36:41;11.30;99.90
20070;DHT22;10195;50.868;4.382;2023-04-08T09:39:07;11.40;99.90
20070;DHT22;10195;50.868;4.382;2023-04-08T09:41:34;11.50;99.90
20070;DHT22;10195;50.868;4.382;2023-04-08T09:44:08;11.40;99.90
20070;DHT22;10195;50.868;4.382;2023-04-08T09:49:57;11.80;99.90
20070;DHT22;10195;50.868;4.382;2023-04-08T09:52:43;12.00;99.90
20070;DHT22;10195;50.868;4.382;2023-04-08T09:55:12;12.10;99.90
20070;DHT22;10195;50.868;4.382;2023-04-08T09:57:57;12.40;99.90
20070;DHT22;10195;50.868;4.382;2023-04-08T10:00:29;12.60;99.90
20070;DHT22;10195;50.868;4.382;2023-04-08T10:03:12;12.70;99.90
20070;DHT22;10195;50.868;4.382;2023-04-08T10:05:43;13.00;99.90
20070;DHT22;10195;50.868;4.382;2023-04-08T10:08:10;13.10;99.90
20070;DHT22;10195;50.868;4.382;2023-04-08T10:10:38;12.60;99.90
20070;DHT22;10195;50.868;4.382;2023-04-08T10:13:06;12.60;99.90
20070;DHT22;10195;50.868;4.382;2023-04-08T10:15:33;12.60;99.90
20070;DHT22;10195;50.868;4.382;2023-04-08T10:23:20;13.00;99.90
20070;DHT22;10195;50.868;4.382;2023-04-08T10:26:28;13.60;99.90
20070;DHT22;10195;50.868;4.382;2023-04-08T10:28:54;14.20;99.90
20070;DHT22;10195;50.868;4.382;2023-04-08T10:31:21;14.10;99.90
20070;DHT22;10195;50.868;4.382;2023-04-08T10:33:47;13.70;99.90
20070;DHT22;10195;50.868;4.382;2023-04-08T10:36:13;14.00;99.90
20070;DHT22;10195;50.868;4.382;2023-04-08T10:38:40;14.30;99.90
20070;DHT22;10195;50.868;4.382;2023-04-08T10:41:12;14.20;99.90
20070;DHT22;10195;50.868;4.382;2023-04-08T10:43:46;14.20;99.90
20070;DHT22;10195;50.868;4.382;2023-04-08T10:46:12;14.30;99.90
20070;DHT22;10195;50.868;4.382;2023-04-08T10:48:38;14.30;99.90
20070;DHT22;10195;50.868;4.382;2023-04-08T10:51:04;13.90;99.90
20070;DHT22;10195;50.868;4.382;2023-04-08T10:53:37;13.60;99.90
20070;DHT22;10195;50.868;4.382;2023-04-08T10:56:10;13.60;99.90
20070;DHT22;10195;50.868;4.382;2023-04-08T10:58:54;13.30;99.90
20070;DHT22;10195;50.868;4.382;2023-04-08T11:01:23;13.70;99.90
20070;DHT22;10195;50.868;4.382;2023-04-08T11:03:50;14.10;99.90
20070;DHT22;10195;50.868;4.382;2023-04-08T11:06:16;13.90;99.90
20070;DHT22;10195;50.868;4.382;2023-04-08T11:08:43;13.00;99.90
20070;DHT22;10195;50.868;4.382;2023-04-08T11:11:11;12.70;99.90
20070;DHT22;10195;50.868;4.382;2023-04-08T11:13:42;13.00;99.90
20070;DHT22;10195;50.868;4.382;2023-04-08T11:16:09;13.50;99.90
20070;DHT22;10195;50.868;4.382;2023-04-08T11:18:36;13.60;99.90
20070;DHT22;10195;50.868;4.382;2023-04-08T11:21:08;13.30;99.90
20070;DHT22;10195;50.868;4.382;2023-04-08T11:23:34;13.60;99.90
20070;DHT22;10195;50.868;4.382;2023-04-08T11:26:00;13.60;99.90
20070;DHT22;10195;50.868;4.382;2023-04-08T11:28:27;13.40;99.90
20070;DHT22;10195;50.868;4.382;2023-04-08T11:30:53;13.50;99.90
20070;DHT22;10195;50.868;4.382;2023-04-08T11:33:19;13.60;99.90
20070;DHT22;10195;50.868;4.382;2023-04-08T11:35:49;13.40;99.90
20070;DHT22;10195;50.868;4.382;2023-04-08T11:38:16;12.90;99.90
20070;DHT22;10195;50.868;4.382;2023-04-08T11:40:58;12.60;99.90
20070;DHT22;10195;50.868;4.382;2023-04-08T11:43:25;12.70;99.90
20070;DHT22;10195;50.868;4.382;2023-04-08T11:45:51;12.60;99.90
20070;DHT22;10195;50.868;4.382;2023-04-08T11:48:17;12.30;99.90
20070;DHT22;10195;50.868;4.382;2023-04-08T11:50:43;12.20;99.90
20070;DHT22;10195;50.868;4.382;2023-04-08T11:53:24;12.10;99.90
20070;DHT22;10195;50.868;4.382;2023-04-08T11:55:50;12.30;99.90
20070;DHT22;10195;50.868;4.382;2023-04-08T11:58:17;12.80;99.90
20070;DHT22;10195;50.868;4.382;2023-04-08T12:00:43;13.00;99.90
20070;DHT22;10195;50.868;4.382;2023-04-08T12:03:10;13.20;99.90
20070;DHT22;10195;50.868;4.382;2023-04-08T12:05:35;13.60;99.90
20070;DHT22;10195;50.868;4.382;2023-04-08T12:08:01;14.10;99.90
20070;DHT22;10195;50.868;4.382;2023-04-08T12:10:27;14.20;99.90
20070;DHT22;10195;50.868;4.382;2023-04-08T12:12:53;13.50;99.90
20070;DHT22;10195;50.868;4.382;2023-04-08T12:15:20;13.50;99.90
20070;DHT22;10195;50.868;4.382;2023-04-08T12:17:46;13.80;99.90
20070;DHT22;10195;50.868;4.382;2023-04-08T12:20:12;13.80;99.90
20070;DHT22;10195;50.868;4.382;2023-04-08T12:22:38;14.30;99.90
20070;DHT22;10195;50.868;4.382;2023-04-08T12:25:04;14.10;99.90
20070;DHT22;10195;50.868;4.382;2023-04-08T12:27:32;14.30;99.90
20070;DHT22;10195;50.868;4.382;2023-04-08T12:30:01;13.90;99.90
20070;DHT22;10195;50.868;4.382;2023-04-08T12:32:27;13.50;99.90
20070;DHT22;10195;50.868;4.382;2023-04-08T12:34:53;13.70;99.90
20070;DHT22;10195;50.868;4.382;2023-04-08T12:37:19;14.40;99.90
20070;DHT22;10195;50.868;4.382;2023-04-08T12:39:46;15.00;99.90
20070;DHT22;10195;50.868;4.382;2023-04-08T12:42:12;15.50;99.90
20070;DHT22;10195;50.868;4.382;2023-04-08T12:44:38;15.70;99.90
20070;DHT22;10195;50.868;4.382;2023-04-08T12:47:04;16.00;99.90
20070;DHT22;10195;50.868;4.382;2023-04-08T12:49:29;15.80;99.90
20070;DHT22;10195;50.868;4.382;2023-04-08T12:51:55;16.00;99.90
20070;DHT22;10195;50.868;4.382;2023-04-08T12:54:21;15.60;99.90
20070;DHT22;10195;50.868;4.382;2023-04-08T12:56:46;15.60;99.90
20070;DHT22;10195;50.868;4.382;2023-04-08T12:59:14;15.30;99.90
20070;DHT22;10195;50.868;4.382;2023-04-08T13:01:40;15.30;99.90
20070;DHT22;10195;50.868;4.382;2023-04-08T13:04:06;14.90;99.90
20070;DHT22;10195;50.868;4.382;2023-04-08T13:06:31;15.30;99.90
20070;DHT22;10195;50.868;4.382;2023-04-08T13:08:57;15.00;99.90
20070;DHT22;10195;50.868;4.382;2023-04-08T13:11:23;15.40;99.90
20070;DHT22;10195;50.868;4.382;2023-04-08T13:13:48;15.70;99.90
20070;DHT22;10195;50.868;4.382;2023-04-08T13:16:15;16.00;99.90
20070;DHT22;10195;50.868;4.382;2023-04-08T13:18:41;15.70;99.90
20070;DHT22;10195;50.868;4.382;2023-04-08T13:21:07;15.30;99.90
20070;DHT22;10195;50.868;4.382;2023-04-08T13:23:33;15.20;99.90
20070;DHT22;10195;50.868;4.382;2023-04-08T13:25:59;15.30;99.90
20070;DHT22;10195;50.868;4.382;2023-04-08T13:28:24;15.10;99.90
20070;DHT22;10195;50.868;4.382;2023-04-08T13:30:50;14.60;99.90
20070;DHT22;10195;50.868;4.382;2023-04-08T13:33:16;14.60;99.90
20070;DHT22;10195;50.868;4.382;2023-04-08T13:35:42;14.70;99.90
20070;DHT22;10195;50.868;4.382;2023-04-08T13:38:08;14.20;99.90
20070;DHT22;10195;50.868;4.382;2023-04-08T13:40:34;14.10;99.90
20070;DHT22;10195;50.868;4.382;2023-04-08T13:42:59;14.00;99.90
20070;DHT22;10195;50.868;4.382;2023-04-08T13:45:26;13.90;99.90
20070;DHT22;10195;50.868;4.382;2023-04-08T13:47:51;13.70;99.90
20070;DHT22;10195;50.868;4.382;2023-04-08T13:50:17;13.50;99.90
20070;DHT22;10195;50.868;4.382;2023-04-08T13:52:43;13.40;99.90
20070;DHT22;10195;50.868;4.382;2023-04-08T13:55:08;13.40;99.90
20070;DHT22;10195;50.868;4.382;2023-04-08T13:57:34;13.60;99.90
20070;DHT22;10195;50.868;4.382;2023-04-08T14:00:00;14.00;99.90
20070;DHT22;10195;50.868;4.382;2023-04-08T14:02:25;14.30;99.90
20070;DHT22;10195;50.868;4.382;2023-04-08T14:04:51;14.60;99.90
20070;DHT22;10195;50.868;4.382;2023-04-08T14:07:21;14.40;99.90
20070;DHT22;10195;50.868;4.382;2023-04-08T14:09:46;14.60;99.90
20070;DHT22;10195;50.868;4.382;2023-04-08T14:12:12;14.40;99.90
20070;DHT22;10195;50.868;4.382;2023-04-08T14:14:37;14.40;99.90
20070;DHT22;10195;50.868;4.382;2023-04-08T14:17:03;14.30;99.90
20070;DHT22;10195;50.868;4.382;2023-04-08T14:19:30;14.60;99.90
20070;DHT22;10195;50.868;4.382;2023-04-08T14:21:56;14.90;99.90
20070;DHT22;10195;50.868;4.382;2023-04-08T14:24:22;14.50;99.90
20070;DHT22;10195;50.868;4.382;2023-04-08T14:26:48;14.60;99.90
20070;DHT22;10195;50.868;4.382;2023-04-08T14:29:13;14.50;99.90
20070;DHT22;10195;50.868;4.382;2023-04-08T14:31:39;14.20;99.90
20070;DHT22;10195;50.868;4.382;2023-04-08T14:34:05;14.10;99.90
20070;DHT22;10195;50.868;4.382;2023-04-08T14:36:33;14.20;99.90
20070;DHT22;10195;50.868;4.382;2023-04-08T14:38:59;14.30;99.90
20070;DHT22;10195;50.868;4.382;2023-04-08T14:41:25;14.40;99.90
20070;DHT22;10195;50.868;4.382;2023-04-08T14:43:52;14.40;99.90
20070;DHT22;10195;50.868;4.382;2023-04-08T14:46:18;14.40;99.90
20070;DHT22;10195;50.868;4.382;2023-04-08T14:48:44;14.60;99.90
20070;DHT22;10195;50.868;4.382;2023-04-08T14:51:10;14.70;99.90
20070;DHT22;10195;50.868;4.382;2023-04-08T14:53:36;14.50;99.90
20070;DHT22;10195;50.868;4.382;2023-04-08T14:56:02;14.20;99.90
20070;DHT22;10195;50.868;4.382;2023-04-08T14:58:28;13.90;99.90
20070;DHT22;10195;50.868;4.382;2023-04-08T15:00:55;14.20;99.90
20070;DHT22;10195;50.868;4.382;2023-04-08T15:03:20;14.60;99.90
20070;DHT22;10195;50.868;4.382;2023-04-08T15:05:47;14.80;99.90
20070;DHT22;10195;50.868;4.382;2023-04-08T15:08:14;14.70;99.90
20070;DHT22;10195;50.868;4.382;2023-04-08T15:10:40;14.90;99.90
20070;DHT22;10195;50.868;4.382;2023-04-08T15:13:06;15.00;99.90
20070;DHT22;10195;50.868;4.382;2023-04-08T15:15:33;15.00;99.90
20070;DHT22;10195;50.868;4.382;2023-04-08T15:17:59;14.90;99.90
20070;DHT22;10195;50.868;4.382;2023-04-08T15:20:25;14.90;99.90
20070;DHT22;10195;50.868;4.382;2023-04-08T15:22:50;14.80;99.90
20070;DHT22;10195;50.868;4.382;2023-04-08T15:25:18;14.80;99.90
20070;DHT22;10195;50.868;4.382;2023-04-08T15:27:44;14.90;99.90
20070;DHT22;10195;50.868;4.382;2023-04-08T15:30:10;14.90;99.90
20070;DHT22;10195;50.868;4.382;2023-04-08T15:32:35;14.80;99.90
20070;DHT22;10195;50.868;4.382;2023-04-08T15:35:02;14.40;99.90
20070;DHT22;10195;50.868;4.382;2023-04-08T15:37:27;14.20;99.90
20070;DHT22;10195;50.868;4.382;2023-04-08T15:39:54;14.30;99.90
20070;DHT22;10195;50.868;4.382;2023-04-08T15:42:21;14.30;99.90
20070;DHT22;10195;50.868;4.382;2023-04-08T15:44:47;14.20;99.90
20070;DHT22;10195;50.868;4.382;2023-04-08T15:47:14;14.40;99.90